Time;durP1;ratioP1;P1;durP2;ratioP2;P2;SDS_P1;SDS_P2;PMS_P1;PMS_P2;Temp;Humidity;BMP_temperature;BMP_pressure;BME280_temperature;BME280_humidity;BME280_pressure;Samples;Min_cycle;Max_cycle;Signal;HPM_P1;HPM_P2
2022/07/26 00:01:33;;;;;;;11.90;7.50;;;;;;;23.85;62.35;100398.53;5032398;28;20029;-79
2022/07/26 00:04:02;;;;;;;10.75;6.85;;;;;;;23.90;62.42;100395.16;5014616;28;20037;-80
2022/07/26 00:06:27;;;;;;;16.38;7.93;;;;;;;23.94;62.43;100401.91;5032468;28;20083;-79
2022/07/26 00:08:52;;;;;;;9.82;7.85;;;;;;;23.92;62.29;100395.78;5032539;28;20018;-80
2022/07/26 00:11:19;;;;;;;11.02;7.80;;;;;;;23.98;62.38;100394.06;5032348;28;20055;-79
2022/07/26 00:13:45;;;;;;;20.75;10.20;;;;;;;23.90;62.75;100397.06;5032199;28;20503;-79
2022/07/26 00:16:11;;;;;;;10.02;7.03;;;;;;;23.83;62.31;100386.94;5032179;28;20126;-79
2022/07/26 00:18:36;;;;;;;14.77;7.03;;;;;;;23.91;62.40;100396.00;5032330;28;20502;-80
2022/07/26 00:21:02;;;;;;;14.80;7.68;;;;;;;23.92;62.31;100398.53;5032225;28;20480;-80
2022/07/26 00:23:28;;;;;;;16.20;8.05;;;;;;;23.70;62.52;100375.13;5032249;28;20025;-80
2022/07/26 00:25:53;;;;;;;14.13;7.22;;;;;;;23.80;62.81;100384.63;5032147;28;20025;-79
2022/07/26 00:28:19;;;;;;;10.32;8.30;;;;;;;23.74;62.84;100385.50;5032291;28;20033;-79
2022/07/26 00:30:45;;;;;;;16.98;8.57;;;;;;;23.70;62.82;100373.25;5032473;28;20017;-79
2022/07/26 00:33:11;;;;;;;13.60;8.07;;;;;;;23.81;63.02;100379.97;5032325;28;20030;-78
2022/07/26 00:35:36;;;;;;;13.52;8.27;;;;;;;23.77;63.40;100385.06;5032127;28;20032;-79
2022/07/26 00:38:02;;;;;;;14.48;8.70;;;;;;;23.66;63.56;100372.00;5032523;28;20029;-79
2022/07/26 00:40:27;;;;;;;17.42;8.25;;;;;;;23.78;63.11;100381.25;5032015;28;20061;-79
2022/07/26 00:42:53;;;;;;;15.45;8.40;;;;;;;23.71;63.28;100369.44;5032023;28;20032;-79
2022/07/26 00:45:18;;;;;;;13.35;8.45;;;;;;;23.76;63.06;100382.50;5014592;28;20029;-79
2022/07/26 00:47:44;;;;;;;13.68;8.38;;;;;;;23.64;63.54;100374.09;5032310;28;20021;-80
2022/07/26 00:50:14;;;;;;;11.10;7.93;;;;;;;23.54;63.57;100364.66;5032235;28;20064;-80
2022/07/26 00:52:46;;;;;;;13.43;8.23;;;;;;;23.67;63.57;100373.66;5032248;28;20029;-79
2022/07/26 00:55:13;;;;;;;13.45;9.30;;;;;;;23.72;63.29;100376.63;5014680;28;20029;-79
2022/07/26 00:57:41;;;;;;;17.73;7.80;;;;;;;23.54;63.77;100368.25;5032165;28;20487;-80
2022/07/26 01:00:11;;;;;;;14.55;7.63;;;;;;;23.48;64.03;100358.13;5014675;28;20384;-80
2022/07/26 01:02:37;;;;;;;14.48;9.30;;;;;;;23.54;64.21;100367.38;5032109;28;20376;-79
2022/07/26 01:05:03;;;;;;;12.73;8.48;;;;;;;23.45;64.26;100355.81;5032183;28;20105;-80
2022/07/26 01:07:28;;;;;;;17.02;8.85;;;;;;;23.64;64.00;100368.59;5031447;28;20017;-80
2022/07/26 01:09:54;;;;;;;15.90;9.23;;;;;;;23.62;64.19;100369.88;5031626;28;20025;-80
2022/07/26 01:12:20;;;;;;;14.68;8.98;;;;;;;23.58;63.97;100354.91;5035867;28;20040;-80
2022/07/26 01:14:45;;;;;;;9.23;7.80;;;;;;;23.59;64.36;100370.31;5035644;28;20080;-81
2022/07/26 01:17:12;;;;;;;11.95;7.85;;;;;;;23.69;64.07;100373.47;5034081;28;20017;-81
2022/07/26 01:19:37;;;;;;;9.20;7.40;;;;;;;23.62;64.25;100362.50;5035379;28;20033;-80
2022/07/26 01:22:03;;;;;;;15.90;8.55;;;;;;;23.63;63.70;100350.47;5035447;28;20022;-79
2022/07/26 01:24:29;;;;;;;10.05;8.30;;;;;;;23.60;63.65;100350.06;5035378;28;20053;-79
2022/07/26 01:26:55;;;;;;;11.30;8.65;;;;;;;23.59;63.69;100346.47;5035291;28;20087;-80
2022/07/26 01:29:21;;;;;;;15.65;8.45;;;;;;;23.65;63.99;100353.84;5035229;28;20491;-79
2022/07/26 01:31:47;;;;;;;12.10;7.53;;;;;;;23.61;64.12;100349.81;5035224;28;20026;-80
2022/07/26 01:34:13;;;;;;;12.88;8.45;;;;;;;23.65;64.31;100352.97;5035069;28;20052;-80
2022/07/26 01:36:38;;;;;;;15.13;8.60;;;;;;;23.43;64.53;100341.44;5034991;28;20487;-79
2022/07/26 01:39:05;;;;;;;13.77;9.43;;;;;;;23.53;64.51;100354.72;5017202;28;20017;-79
2022/07/26 01:41:30;;;;;;;11.95;8.25;;;;;;;23.50;64.72;100345.00;5034926;28;20372;-80
2022/07/26 01:43:56;;;;;;;20.02;9.40;;;;;;;23.57;64.55;100348.59;5034756;28;20024;-79
2022/07/26 01:46:21;;;;;;;19.90;9.60;;;;;;;23.55;64.41;100350.69;5034718;28;20034;-79
2022/07/26 01:48:46;;;;;;;12.57;9.32;;;;;;;23.53;64.71;100350.06;5034842;28;20553;-79
2022/07/26 01:51:12;;;;;;;13.88;8.80;;;;;;;23.48;64.83;100346.28;5034721;28;20021;-80
2022/07/26 01:53:37;;;;;;;11.52;9.32;;;;;;;23.50;64.54;100344.16;5034573;28;20109;-79
2022/07/26 01:56:03;;;;;;;19.67;9.77;;;;;;;23.46;64.57;100340.16;5035108;28;20021;-79
2022/07/26 01:58:29;;;;;;;18.27;9.50;;;;;;;23.30;65.26;100344.19;5034600;28;20103;-79
2022/07/26 02:00:54;;;;;;;11.30;8.15;;;;;;;23.41;65.16;100350.94;5034969;28;20029;-79
2022/07/26 02:03:20;;;;;;;16.20;9.15;;;;;;;23.44;65.19;100356.84;5034768;28;20395;-79
2022/07/26 02:05:45;;;;;;;20.50;8.98;;;;;;;23.39;65.16;100340.19;5034684;28;20052;-79
2022/07/26 02:08:10;;;;;;;13.73;9.57;;;;;;;23.45;65.37;100358.56;5034354;28;20028;-78
2022/07/26 02:13:21;;;;;;;17.85;10.50;;;;;;;23.38;65.71;100357.69;5034770;28;20040;-79
2022/07/26 02:15:47;;;;;;;14.07;10.52;;;;;;;23.36;65.77;100354.31;5034253;28;20033;-79
2022/07/26 02:18:13;;;;;;;13.60;9.57;;;;;;;23.16;66.13;100337.03;5034261;28;20510;-79
2022/07/26 02:20:38;;;;;;;12.95;9.60;;;;;;;23.27;66.15;100361.09;5034411;28;20025;-81
2022/07/26 02:23:04;;;;;;;11.57;9.45;;;;;;;23.19;66.38;100353.91;5033522;28;20025;-79
2022/07/26 02:25:30;;;;;;;32.40;10.27;;;;;;;23.24;66.05;100350.50;5033967;28;20025;-79
2022/07/26 02:27:55;;;;;;;17.90;9.45;;;;;;;23.16;65.96;100353.47;5034458;28;20047;-79
2022/07/26 02:30:21;;;;;;;13.88;9.07;;;;;;;23.09;66.58;100339.78;5033873;28;20090;-79
2022/07/26 02:32:47;;;;;;;21.30;8.88;;;;;;;22.90;66.69;100312.38;5033897;28;20155;-79
2022/07/26 02:35:12;;;;;;;12.05;9.82;;;;;;;23.13;66.46;100342.94;5034297;28;20028;-79
2022/07/26 02:37:39;;;;;;;13.50;9.88;;;;;;;23.11;66.25;100340.41;5034034;28;20110;-79
2022/07/26 02:40:05;;;;;;;12.43;7.88;;;;;;;23.09;66.21;100336.19;5034115;28;20497;-80
2022/07/26 02:42:31;;;;;;;13.45;8.93;;;;;;;23.13;66.18;100326.47;5033495;28;20033;-79
2022/07/26 02:44:56;;;;;;;17.15;8.90;;;;;;;23.24;66.17;100348.59;5033779;28;20086;-81
2022/07/26 02:47:22;;;;;;;14.43;8.90;;;;;;;23.23;65.92;100351.59;5033843;28;20029;-80
2022/07/26 02:49:47;;;;;;;18.45;9.25;;;;;;;23.27;65.98;100350.09;5033882;28;20459;-80
2022/07/26 02:52:13;;;;;;;20.77;8.75;;;;;;;23.16;65.98;100334.28;5033438;28;20018;-79
2022/07/26 02:54:38;;;;;;;12.48;9.15;;;;;;;23.23;65.96;100324.13;5033851;28;20034;-79
2022/07/26 02:57:03;;;;;;;14.10;9.32;;;;;;;23.12;65.96;100320.13;5033419;28;20380;-80
2022/07/26 02:59:29;;;;;;;17.80;9.55;;;;;;;23.28;66.15;100349.88;5033597;28;20081;-80
2022/07/26 03:01:55;;;;;;;14.93;9.68;;;;;;;23.31;66.28;100341.22;5033069;28;20059;-79
2022/07/26 03:04:20;;;;;;;12.15;10.13;;;;;;;23.24;66.04;100331.28;5033374;28;20017;-78
2022/07/26 03:06:46;;;;;;;16.60;9.63;;;;;;;23.31;66.23;100334.88;5033318;28;20075;-79
2022/07/26 03:09:11;;;;;;;16.17;9.70;;;;;;;23.27;65.73;100328.16;5033435;28;20079;-79
2022/07/26 03:11:37;;;;;;;14.38;10.23;;;;;;;23.28;65.94;100332.56;5033426;28;20025;-79
2022/07/26 03:14:02;;;;;;;21.00;11.48;;;;;;;23.27;66.43;100336.38;5033021;28;20049;-80
2022/07/26 03:16:28;;;;;;;20.20;10.95;;;;;;;23.33;66.29;100353.91;5033207;28;20029;-79
2022/07/26 03:18:53;;;;;;;22.63;11.75;;;;;;;23.26;66.50;100341.03;5033125;28;20030;-79
2022/07/26 03:21:19;;;;;;;19.13;12.50;;;;;;;23.19;66.75;100326.47;5033146;28;20051;-80
2022/07/26 03:23:44;;;;;;;17.55;11.43;;;;;;;23.12;67.11;100335.75;5033546;28;20053;-79
2022/07/26 03:26:10;;;;;;;20.23;13.65;;;;;;;23.16;66.97;100345.25;5033092;28;20026;-79
2022/07/26 03:28:35;;;;;;;28.23;13.27;;;;;;;23.20;67.08;100354.75;5033358;28;20032;-79
2022/07/26 03:31:01;;;;;;;22.83;11.95;;;;;;;23.08;67.29;100337.25;5033222;28;20029;-79
2022/07/26 03:33:28;;;;;;;22.55;12.65;;;;;;;23.14;67.59;100350.97;5033041;28;20400;-78
2022/07/26 03:35:53;;;;;;;22.38;14.60;;;;;;;23.16;67.72;100357.06;5032578;28;20021;-79
2022/07/26 03:38:19;;;;;;;20.75;14.02;;;;;;;23.18;67.52;100356.84;5032626;28;20471;-79
2022/07/26 03:40:44;;;;;;;25.33;15.70;;;;;;;23.18;67.78;100362.34;5014853;28;20036;-79
2022/07/26 03:43:09;;;;;;;36.40;16.25;;;;;;;23.21;67.50;100356.41;5032779;28;20033;-79
2022/07/26 03:45:35;;;;;;;23.55;14.68;;;;;;;23.21;67.67;100357.28;5032732;28;20033;-80
2022/07/26 03:48:00;;;;;;;25.88;14.95;;;;;;;23.13;67.55;100342.94;5032603;28;20116;-80
2022/07/26 03:50:26;;;;;;;25.48;17.52;;;;;;;23.22;67.71;100358.97;5033088;28;20082;-79
2022/07/26 03:52:51;;;;;;;37.55;17.27;;;;;;;23.25;67.63;100358.53;5033308;28;20033;-80
2022/07/26 03:58:01;;;;;;;30.48;17.48;;;;;;;23.18;68.21;100356.84;5033612;28;20040;-80
2022/07/26 04:00:26;;;;;;;30.48;16.98;;;;;;;23.21;68.44;100361.91;5033342;28;20049;-80
2022/07/26 04:02:52;;;;;;;33.10;18.02;;;;;;;23.24;68.22;100356.84;5033010;28;20034;-80
2022/07/26 04:05:17;;;;;;;32.38;16.38;;;;;;;23.33;68.24;100357.47;5033385;28;20376;-80
2022/07/26 04:07:44;;;;;;;35.75;18.35;;;;;;;23.36;68.08;100351.56;5014838;28;20064;-80
2022/07/26 04:10:11;;;;;;;51.88;20.67;;;;;;;23.44;68.16;100348.63;5032480;28;20041;-81
2022/07/26 04:12:37;;;;;;;36.22;18.48;;;;;;;23.40;68.37;100333.63;5033246;28;20048;-80
2022/07/26 04:15:03;;;;;;;44.05;18.58;;;;;;;23.50;68.20;100342.25;5033187;28;20467;-80
2022/07/26 04:17:33;;;;;;;54.13;20.88;;;;;;;23.50;68.71;100334.03;5032921;28;20025;-79
2022/07/26 04:19:59;;;;;;;48.53;21.13;;;;;;;23.59;68.45;100332.72;5032870;28;20021;-81
2022/07/26 04:22:24;;;;;;;56.75;24.83;;;;;;;23.64;68.60;100346.63;5032782;28;20553;-81
2022/07/26 04:24:50;;;;;;;41.60;20.52;;;;;;;23.66;68.97;100339.06;5032929;28;20029;-81
2022/07/26 04:27:15;;;;;;;41.53;20.83;;;;;;;23.71;68.82;100341.97;5032047;28;20373;-79
2022/07/26 04:29:41;;;;;;;46.85;22.25;;;;;;;23.72;68.66;100343.69;5031966;28;20055;-80
2022/07/26 04:32:06;;;;;;;48.00;24.02;;;;;;;23.61;69.16;100325.09;5032011;28;20487;-80
2022/07/26 04:34:31;;;;;;;44.47;24.27;;;;;;;23.71;68.97;100343.88;5031737;28;20051;-81
2022/07/26 04:36:57;;;;;;;44.72;24.92;;;;;;;23.69;68.84;100338.63;5031644;28;20029;-79
2022/07/26 04:39:23;;;;;;;45.20;24.05;;;;;;;23.73;68.93;100350.84;5031549;28;20037;-80
2022/07/26 04:41:49;;;;;;;49.92;24.92;;;;;;;23.71;68.67;100341.97;5031348;28;20021;-80
2022/07/26 04:44:14;;;;;;;54.70;26.40;;;;;;;23.79;68.84;100355.47;5031575;28;20090;-80
2022/07/26 04:46:40;;;;;;;48.15;26.05;;;;;;;23.82;68.80;100345.97;5034560;28;20061;-80
2022/07/26 04:49:05;;;;;;;58.95;26.25;;;;;;;23.87;68.53;100339.81;5035117;28;20060;-79
2022/07/26 04:51:31;;;;;;;62.22;25.70;;;;;;;24.02;68.33;100354.09;5035356;28;20032;-80
2022/07/26 04:53:56;;;;;;;45.17;28.25;;;;;;;24.03;68.24;100344.81;5035484;28;20051;-80
2022/07/26 04:56:22;;;;;;;57.90;29.67;;;;;;;24.08;68.19;100342.22;5035999;28;20083;-80
2022/07/26 04:58:47;;;;;;;66.43;31.45;;;;;;;24.17;68.20;100347.28;5036227;28;20061;-79
2022/07/26 05:01:13;;;;;;;56.03;30.08;;;;;;;24.22;67.79;100354.88;5035497;28;20164;-79
2022/07/26 05:03:38;;;;;;;50.13;30.83;;;;;;;24.34;67.49;100358.63;5035597;28;20025;-80
2022/07/26 05:06:04;;;;;;;47.13;29.77;;;;;;;24.31;67.35;100343.38;5034882;28;20094;-78
2022/07/26 05:08:29;;;;;;;53.63;28.83;;;;;;;24.45;66.87;100348.81;5036809;28;20100;-83
2022/07/26 05:10:55;;;;;;;50.03;25.48;;;;;;;24.48;66.00;100340.13;5032519;28;20017;-77
2022/07/26 05:13:20;;;;;;;46.45;30.88;;;;;;;24.54;65.47;100342.84;5033018;28;20040;-77
2022/07/26 05:15:45;;;;;;;65.10;32.85;;;;;;;24.56;66.30;100342.59;5033045;28;20025;-80
2022/07/26 05:18:11;;;;;;;65.13;35.22;;;;;;;24.68;65.61;100343.56;5033681;28;20471;-78
2022/07/26 05:20:38;;;;;;;64.97;33.80;;;;;;;24.64;65.84;100336.84;5015702;28;20782;-78
2022/07/26 05:23:04;;;;;;;71.10;36.17;;;;;;;24.74;66.24;100343.50;5034025;28;20072;-79
2022/07/26 05:25:29;;;;;;;66.78;34.88;;;;;;;24.83;66.26;100331.19;5033947;28;20535;-78
2022/07/26 05:27:55;;;;;;;63.70;37.25;;;;;;;24.89;66.13;100348.75;5033201;28;20033;-79
2022/07/26 05:30:20;;;;;;;88.93;38.60;;;;;;;25.00;66.12;100341.66;5032717;28;20034;-77
2022/07/26 05:32:46;;;;;;;77.45;36.17;;;;;;;25.08;65.78;100338.59;5032977;28;20033;-77
2022/07/26 05:35:11;;;;;;;76.63;40.00;;;;;;;25.16;65.93;100335.56;5033801;28;20025;-78
2022/07/26 05:37:37;;;;;;;75.57;37.92;;;;;;;25.30;65.36;100340.72;5039544;28;20395;-88
2022/07/26 05:40:04;;;;;;;79.97;35.92;;;;;;;25.40;64.93;100345.69;5020873;28;20026;-85
2022/07/26 05:42:30;;;;;;;58.22;32.42;;;;;;;25.44;64.62;100338.69;5036667;28;20025;-86
2022/07/26 05:44:55;;;;;;;58.13;32.47;;;;;;;25.53;64.27;100348.34;5036216;28;20029;-84
2022/07/26 05:47:21;;;;;;;64.88;31.95;;;;;;;25.62;64.03;100355.25;5036618;28;20052;-87
2022/07/26 05:49:46;;;;;;;74.65;29.92;;;;;;;25.70;63.70;100349.41;5037384;28;20112;-85
2022/07/26 05:52:12;;;;;;;56.47;29.55;;;;;;;25.73;62.89;100337.94;5037170;28;20025;-82
2022/07/26 05:54:37;;;;;;;68.97;28.25;;;;;;;25.81;62.57;100345.03;5018489;28;20484;-86
2022/07/26 05:57:03;;;;;;;54.72;24.98;;;;;;;25.83;62.06;100331.88;5017318;28;20079;-84
2022/07/26 05:59:29;;;;;;;48.53;26.88;;;;;;;25.98;61.88;100335.91;5036460;28;20105;-85
2022/07/26 06:01:57;;;;;;;45.20;24.92;;;;;;;26.03;61.63;100342.63;5035556;28;20076;-87
2022/07/26 06:04:23;;;;;;;62.47;25.17;;;;;;;26.06;60.68;100336.66;5035433;28;20036;-85
2022/07/26 06:06:49;;;;;;;44.88;24.08;;;;;;;26.24;60.07;100353.19;5035039;28;20026;-76
2022/07/26 06:09:15;;;;;;;42.20;22.98;;;;;;;26.27;59.77;100344.44;5032150;28;20124;-80
2022/07/26 06:11:40;;;;;;;52.35;26.10;;;;;;;26.36;59.45;100346.66;5032726;28;20087;-77
2022/07/26 06:14:06;;;;;;;50.55;25.33;;;;;;;26.45;59.27;100342.47;5031942;28;20060;-75
2022/07/26 06:16:31;;;;;;;51.53;22.55;;;;;;;26.44;58.38;100327.03;5031831;28;20029;-77
2022/07/26 06:18:57;;;;;;;80.85;33.92;;;;;;;26.54;58.42;100328.38;5031868;28;20029;-76
2022/07/26 06:21:22;;;;;;;45.42;22.63;;;;;;;26.66;57.90;100338.34;5031864;28;20112;-79
2022/07/26 06:23:48;;;;;;;42.63;20.95;;;;;;;26.73;57.71;100327.19;5032889;28;20408;-81
2022/07/26 06:26:14;;;;;;;38.85;21.80;;;;;;;26.81;58.11;100318.63;5032027;28;20021;-78
2022/07/26 06:28:40;;;;;;;45.10;21.10;;;;;;;26.89;57.99;100321.84;5031678;28;20040;-75
2022/07/26 06:31:05;;;;;;;43.35;20.70;;;;;;;26.98;57.63;100317.66;5031632;28;20022;-77
2022/07/26 06:33:31;;;;;;;40.42;19.98;;;;;;;27.02;57.78;100321.63;5031820;28;20044;-79
2022/07/26 06:35:57;;;;;;;38.65;19.42;;;;;;;27.13;57.72;100332.91;5031602;28;20550;-78
2022/07/26 06:38:22;;;;;;;32.60;18.73;;;;;;;27.20;57.44;100334.47;5031956;28;20416;-76
2022/07/26 06:40:48;;;;;;;33.92;18.27;;;;;;;27.27;56.96;100326.06;5032171;28;20416;-76
2022/07/26 06:43:13;;;;;;;34.28;15.77;;;;;;;27.35;56.41;100336.75;5031742;28;20026;-78
2022/07/26 06:45:39;;;;;;;34.30;14.95;;;;;;;27.37;55.12;100318.00;5030818;28;20407;-76
2022/07/26 06:48:04;;;;;;;29.33;13.43;;;;;;;27.42;55.17;100319.00;5033961;28;20033;-84
2022/07/26 06:50:30;;;;;;;25.15;14.80;;;;;;;27.51;54.88;100325.84;5036067;28;20539;-81
2022/07/26 06:52:55;;;;;;;22.30;12.68;;;;;;;27.51;54.38;100317.56;5036431;28;20113;-84
2022/07/26 06:55:21;;;;;;;26.08;12.55;;;;;;;27.58;54.49;100314.66;5036146;28;20407;-84
2022/07/26 06:57:46;;;;;;;23.90;13.00;;;;;;;27.67;54.07;100324.25;5036333;28;20037;-84
2022/07/26 07:00:12;;;;;;;21.77;13.30;;;;;;;27.75;53.95;100323.88;5036175;28;20403;-81
2022/07/26 07:02:38;;;;;;;27.63;13.18;;;;;;;27.75;54.00;100320.25;5034882;28;20022;-81
2022/07/26 07:05:04;;;;;;;27.50;13.43;;;;;;;27.77;53.71;100310.63;5033997;28;20025;-81
2022/07/26 07:07:29;;;;;;;27.75;11.63;;;;;;;28.01;53.63;100323.28;5033140;28;20024;-79
2022/07/26 07:09:55;;;;;;;28.05;13.32;;;;;;;28.10;53.59;100335.66;5032826;28;20422;-81
2022/07/26 07:12:20;;;;;;;24.55;11.30;;;;;;;28.16;53.27;100319.19;5034629;28;20030;-81
2022/07/26 07:14:46;;;;;;;28.10;11.02;;;;;;;28.23;53.43;100315.19;5033531;28;20041;-83
2022/07/26 07:17:11;;;;;;;25.98;12.15;;;;;;;28.24;52.60;100305.81;5034075;28;20076;-81
2022/07/26 07:19:37;;;;;;;23.10;11.50;;;;;;;28.43;52.68;100320.25;5035440;28;20100;-82
2022/07/26 07:22:03;;;;;;;40.20;11.10;;;;;;;28.56;52.24;100325.50;5035855;28;20033;-85
2022/07/26 07:24:29;;;;;;;35.65;10.32;;;;;;;28.59;51.95;100316.69;5034996;28;20579;-81
2022/07/26 07:26:58;;;;;;;24.55;10.20;;;;;;;28.73;51.54;100320.81;5034820;28;20053;-80
2022/07/26 07:29:24;;;;;;;12.43;8.63;;;;;;;28.79;49.76;100319.81;5034694;28;20028;-83
2022/07/26 07:31:50;;;;;;;13.75;7.75;;;;;;;28.83;48.99;100323.78;5018542;28;20434;-83
2022/07/26 07:34:17;;;;;;;18.20;8.45;;;;;;;28.90;48.05;100321.66;5033559;28;20037;-81
2022/07/26 07:36:42;;;;;;;18.10;8.43;;;;;;;28.98;48.09;100325.94;5034444;28;20502;-83
2022/07/26 07:39:08;;;;;;;17.75;8.52;;;;;;;29.00;48.03;100323.75;5033122;28;20104;-82
2022/07/26 07:41:35;;;;;;;13.00;7.93;;;;;;;29.12;48.40;100316.19;5032430;28;20408;-80
2022/07/26 07:44:00;;;;;;;16.45;8.48;;;;;;;29.22;47.86;100319.13;5032783;28;20040;-80
2022/07/26 07:46:26;;;;;;;14.77;7.88;;;;;;;29.23;48.35;100311.66;5032033;28;20029;-79
2022/07/26 07:48:52;;;;;;;16.15;8.35;;;;;;;29.33;48.83;100320.97;5031442;28;20471;-79
2022/07/26 07:51:18;;;;;;;24.38;9.60;;;;;;;29.39;51.41;100310.78;5030924;28;20063;-79
2022/07/26 07:53:43;;;;;;;15.52;9.75;;;;;;;29.43;51.46;100306.44;5031100;28;20030;-79
2022/07/26 07:56:09;;;;;;;26.40;10.18;;;;;;;29.51;52.91;100311.53;5031354;28;20036;-85
2022/07/26 07:58:34;;;;;;;21.92;10.95;;;;;;;29.52;52.68;100316.81;5032571;28;20029;-80
2022/07/26 08:01:00;;;;;;;19.23;10.82;;;;;;;29.52;53.21;100319.59;5031477;28;20106;-81
2022/07/26 08:03:25;;;;;;;20.67;10.50;;;;;;;29.61;53.72;100314.44;5031356;28;20040;-78
2022/07/26 08:05:51;;;;;;;18.60;10.05;;;;;;;29.69;54.41;100322.31;5031541;28;20060;-79
2022/07/26 08:08:18;;;;;;;28.55;8.50;;;;;;;29.69;54.07;100323.13;5031471;28;20064;-80
2022/07/26 08:10:43;;;;;;;22.60;9.57;;;;;;;29.72;52.44;100319.03;5031004;28;20021;-82
2022/07/26 08:13:08;;;;;;;22.20;8.88;;;;;;;29.82;51.97;100327.50;5033576;28;20087;-83
2022/07/26 08:15:34;;;;;;;21.52;8.88;;;;;;;29.84;52.76;100319.78;5033205;28;20017;-83
2022/07/26 08:17:59;;;;;;;12.43;9.18;;;;;;;29.81;54.80;100320.25;5032057;28;20025;-78
2022/07/26 08:20:25;;;;;;;18.02;10.70;;;;;;;29.75;56.72;100307.44;5030097;28;20104;-78
2022/07/26 08:22:51;;;;;;;18.70;11.80;;;;;;;29.51;57.14;100308.78;5030329;28;20538;-77
2022/07/26 08:25:16;;;;;;;16.48;11.93;;;;;;;29.46;58.45;100320.63;5030821;28;20526;-80
2022/07/26 08:27:42;;;;;;;25.13;11.80;;;;;;;29.36;58.95;100301.06;5030412;28;20017;-80
2022/07/26 08:30:08;;;;;;;13.45;10.75;;;;;;;29.46;58.12;100317.00;5031182;28;20107;-78
2022/07/26 08:32:33;;;;;;;16.27;11.05;;;;;;;29.39;55.02;100319.09;5030739;28;20503;-78
2022/07/26 08:34:59;;;;;;;17.38;10.85;;;;;;;29.44;55.31;100319.19;5013377;28;20021;-75
2022/07/26 08:37:27;;;;;;;15.73;9.95;;;;;;;29.40;55.57;100318.03;5030074;28;20036;-76
2022/07/26 08:39:59;;;;;;;12.25;9.75;;;;;;;29.36;56.46;100322.38;5030222;28;20025;-74
2022/07/26 08:42:24;;;;;;;27.23;10.75;;;;;;;29.31;57.47;100314.84;5029059;28;20021;-75
2022/07/26 08:44:50;;;;;;;10.27;9.13;;;;;;;29.28;56.99;100322.84;5028552;28;20037;-74
2022/07/26 08:47:18;;;;;;;16.55;10.13;;;;;;;29.19;57.92;100316.88;5028543;28;20029;-76
2022/07/26 08:49:44;;;;;;;17.20;9.82;;;;;;;29.26;58.25;100320.34;5028812;28;20100;-76
2022/07/26 08:52:12;;;;;;;22.70;9.90;;;;;;;29.30;57.10;100317.88;5028803;28;20025;-79
2022/07/26 08:54:44;;;;;;;46.63;12.27;;;;;;;29.26;57.41;100330.56;5028968;28;20093;-78
2022/07/26 08:57:10;;;;;;;16.33;8.20;;;;;;;29.18;57.33;100321.56;5029287;28;20028;-79
2022/07/26 08:59:36;;;;;;;13.65;7.75;;;;;;;29.28;56.95;100323.69;5028974;28;20057;-76
2022/07/26 09:02:05;;;;;;;11.80;8.68;;;;;;;29.36;56.23;100314.06;5012411;28;20506;-79
2022/07/26 09:04:35;;;;;;;9.82;8.25;;;;;;;29.40;55.56;100312.47;5030707;28;20078;-78
2022/07/26 09:07:02;;;;;;;10.52;8.35;;;;;;;29.48;55.57;100303.75;5013158;28;20028;-79
2022/07/26 09:09:29;;;;;;;17.50;8.05;;;;;;;29.43;55.91;100300.88;5030394;28;20057;-79
2022/07/26 09:11:55;;;;;;;20.77;10.40;;;;;;;29.51;55.31;100308.78;5030587;28;20446;-80
2022/07/26 09:14:21;;;;;;;15.00;8.02;;;;;;;29.52;54.86;100304.88;5031315;28;20045;-81
2022/07/26 09:16:59;;;;;;;8.70;7.68;;;;;;;29.52;54.67;100305.72;5030026;28;20033;-76
2022/07/26 09:19:26;;;;;;;10.27;7.63;;;;;;;29.56;54.29;100314.38;5029872;28;20090;-78
2022/07/26 09:21:53;;;;;;;20.23;7.93;;;;;;;29.43;54.82;100306.44;5029710;28;20033;-80
2022/07/26 09:24:33;;;;;;;17.95;7.43;;;;;;;29.47;56.13;100313.16;5030511;28;20448;-80
2022/07/26 09:27:00;;;;;;;20.88;7.38;;;;;;;29.32;56.68;100310.16;5029556;28;20025;-79
2022/07/26 09:29:27;;;;;;;19.58;7.63;;;;;;;29.38;57.04;100298.91;5029785;28;20376;-79
2022/07/26 09:32:08;;;;;;;12.80;6.35;;;;;;;29.47;55.21;100302.06;5031459;28;20017;-79
2022/07/26 09:34:33;;;;;;;8.15;6.15;;;;;;;29.51;54.40;100304.03;5033650;28;20100;-80
2022/07/26 09:36:59;;;;;;;8.63;6.57;;;;;;;29.52;54.62;100307.66;5033312;28;20728;-80
2022/07/26 09:39:24;;;;;;;8.10;7.00;;;;;;;29.35;54.03;100293.03;5033946;28;20499;-79
2022/07/26 09:41:50;;;;;;;9.23;6.00;;;;;;;29.44;53.82;100297.03;5033351;28;20384;-78
2022/07/26 09:44:21;;;;;;;15.98;6.13;;;;;;;29.60;53.86;100308.03;5033111;28;20029;-79
2022/07/26 09:46:57;;;;;;;51.38;9.07;;;;;;;29.68;54.58;100304.84;5033617;28;20057;-80
2022/07/26 09:49:25;;;;;;;19.13;6.55;;;;;;;29.79;54.81;100305.81;5033360;28;20537;-81
2022/07/26 09:51:52;;;;;;;16.40;7.07;;;;;;;29.75;55.19;100307.44;5033775;28;20040;-78
2022/07/26 09:54:19;;;;;;;14.73;6.45;;;;;;;29.62;53.86;100299.50;5033671;28;20051;-79
2022/07/26 09:56:51;;;;;;;21.90;6.78;;;;;;;29.68;52.98;100292.91;5033725;28;20506;-77
2022/07/26 09:59:18;;;;;;;10.90;6.45;;;;;;;29.55;53.77;100287.75;5033435;28;20057;-77
2022/07/26 10:01:45;;;;;;;10.73;6.00;;;;;;;29.64;54.19;100298.13;5033691;28;20514;-79
2022/07/26 10:04:11;;;;;;;20.27;6.63;;;;;;;29.66;54.16;100301.47;5033341;28;20036;-79
2022/07/26 10:06:37;;;;;;;15.93;6.13;;;;;;;29.75;55.43;100307.44;5034914;28;20079;-83
2022/07/26 10:09:04;;;;;;;9.88;6.68;;;;;;;29.68;56.15;100304.00;5031926;28;20022;-80
2022/07/26 10:11:37;;;;;;;30.15;6.82;;;;;;;29.68;56.66;100302.06;5032084;28;20054;-79
2022/07/26 10:14:38;;;;;;;7.28;6.05;;;;;;;29.71;54.84;100297.94;5032301;28;20026;-78
2022/07/26 10:17:28;;;;;;;14.00;5.68;;;;;;;29.57;54.57;100288.34;5033070;28;20096;-79
2022/07/26 10:20:03;;;;;;;14.50;5.45;;;;;;;29.53;53.95;100289.94;5032436;28;20083;-78
2022/07/26 10:22:32;;;;;;;9.10;5.50;;;;;;;29.59;53.18;100284.22;5031951;28;20022;-79
2022/07/26 10:25:18;;;;;;;16.58;5.20;;;;;;;29.52;54.99;100285.50;5032449;28;20102;-80
2022/07/26 10:27:55;;;;;;;13.68;6.55;;;;;;;29.50;55.28;100279.38;5021517;28;20042;-76
2022/07/26 10:30:26;;;;;;;19.77;6.97;;;;;;;29.56;55.92;100275.56;5032222;28;20025;-79
2022/07/26 10:33:09;;;;;;;13.07;6.57;;;;;;;29.67;56.04;100280.97;5031628;28;20021;-76
2022/07/26 10:35:43;;;;;;;15.77;7.05;;;;;;;29.68;56.49;100276.28;5031592;28;20040;-77
2022/07/26 10:38:21;;;;;;;25.85;6.60;;;;;;;29.63;55.56;100262.38;5014130;28;20435;-77
2022/07/26 10:41:07;;;;;;;9.55;6.05;;;;;;;29.73;56.56;100279.09;5013975;28;20025;-76
2022/07/26 10:43:33;;;;;;;14.57;6.75;;;;;;;29.80;56.85;100276.13;5031172;28;20029;-78
2022/07/26 10:46:29;;;;;;;13.02;7.13;;;;;;;29.83;56.50;100276.50;5032323;28;20029;-79
2022/07/26 10:48:57;;;;;;;11.18;6.57;;;;;;;29.90;55.75;100266.06;5011434;28;20040;-78
2022/07/26 10:51:30;;;;;;;10.65;7.03;;;;;;;29.89;54.12;100258.81;5032176;28;20028;-76
2022/07/26 10:54:07;;;;;;;26.15;6.57;;;;;;;29.86;53.52;100256.56;5031792;28;20025;-78
2022/07/26 10:56:33;;;;;;;10.90;6.93;;;;;;;29.92;54.99;100255.53;5032151;28;20146;-78
2022/07/26 10:58:59;;;;;;;11.10;7.35;;;;;;;30.00;55.55;100257.00;5032752;28;20396;-78
2022/07/26 11:01:35;;;;;;;15.93;7.85;;;;;;;29.95;56.67;100255.00;5014113;28;20734;-79
2022/07/26 11:04:02;;;;;;;11.98;7.05;;;;;;;29.99;56.85;100253.41;5032358;28;20021;-79
2022/07/26 11:06:29;;;;;;;25.38;7.18;;;;;;;30.06;56.08;100240.13;5032324;28;20029;-79
2022/07/26 11:08:55;;;;;;;17.83;6.88;;;;;;;30.18;55.45;100257.44;5031160;28;20029;-75
2022/07/26 11:11:32;;;;;;;14.70;5.95;;;;;;;30.21;53.92;100231.97;5031258;28;20102;-76
2022/07/26 11:14:09;;;;;;;34.35;7.95;;;;;;;30.36;53.03;100259.03;5031127;28;20025;-76
2022/07/26 11:16:40;;;;;;;12.73;5.70;;;;;;;30.52;53.54;100232.28;5030802;28;20399;-76
2022/07/26 11:19:19;;;;;;;13.48;5.38;;;;;;;30.72;52.50;100232.44;5031453;28;20029;-79